Time;durP1;ratioP1;P1;durP2;ratioP2;P2;SDS_P1;SDS_P2;PMS_P1;PMS_P2;Temp;Humidity;BMP_temperature;BMP_pressure;BME280_temperature;BME280_humidity;BME280_pressure;Samples;Min_cycle;Max_cycle;Signal;HPM_P1;HPM_P2
2023/09/05 00:01:31;;;;;;;2.50;1.17;;;21.10;96.20;;;;;;5022597;28;46343;-50
2023/09/05 00:03:57;;;;;;;1.48;1.08;;;21.10;95.80;;;;;;5024226;28;45045;-50
2023/09/05 00:06:24;;;;;;;4.38;1.45;;;21.20;97.70;;;;;;5024141;28;45116;-51
2023/09/05 00:08:51;;;;;;;2.08;1.33;;;21.20;96.50;;;;;;5022901;28;46254;-50
2023/09/05 00:11:18;;;;;;;3.25;1.23;;;21.10;95.20;;;;;;5022243;28;45138;-50
2023/09/05 00:13:46;;;;;;;2.60;1.42;;;21.00;93.90;;;;;;5022522;28;45147;-50
2023/09/05 00:16:12;;;;;;;1.70;1.02;;;21.10;95.60;;;;;;5021490;28;45083;-51
2023/09/05 00:18:39;;;;;;;1.55;1.08;;;21.20;96.90;;;;;;5024532;28;46350;-50
2023/09/05 00:21:07;;;;;;;2.47;1.40;;;21.10;96.50;;;;;;5024008;28;45253;-51
2023/09/05 00:23:34;;;;;;;2.92;1.40;;;21.20;95.70;;;;;;5021668;28;45297;-50
2023/09/05 00:26:01;;;;;;;2.42;1.38;;;21.10;95.10;;;;;;5023489;28;45311;-51
2023/09/05 00:28:27;;;;;;;1.52;1.15;;;21.10;95.70;;;;;;5023783;28;45191;-50
2023/09/05 00:30:57;;;;;;;2.78;1.40;;;21.10;94.90;;;;;;5020581;28;44595;-50
2023/09/05 00:33:24;;;;;;;4.68;1.45;;;21.10;94.00;;;;;;5023498;28;45091;-50
2023/09/05 00:35:53;;;;;;;1.75;1.17;;;21.10;98.50;;;;;;5024664;28;45029;-51
2023/09/05 00:38:22;;;;;;;2.17;1.27;;;21.10;95.60;;;;;;5014627;28;45270;-51
2023/09/05 00:40:49;;;;;;;1.58;1.10;;;21.20;96.60;;;;;;5023119;28;45175;-50
2023/09/05 00:43:17;;;;;;;1.77;1.25;;;21.20;94.00;;;;;;5023956;28;45218;-50
2023/09/05 00:45:49;;;;;;;1.58;1.10;;;21.10;94.40;;;;;;5021285;28;45045;-50
2023/09/05 00:48:17;;;;;;;3.58;1.25;;;21.10;94.90;;;;;;5020348;28;45291;-50
2023/09/05 00:50:46;;;;;;;2.90;1.58;;;21.10;94.80;;;;;;5025038;28;45081;-50
2023/09/05 00:53:13;;;;;;;3.95;1.67;;;21.10;94.60;;;;;;5024775;28;44697;-51
2023/09/05 00:55:40;;;;;;;2.10;1.10;;;21.10;94.30;;;;;;5017162;28;44663;-51
2023/09/05 00:58:07;;;;;;;2.17;1.20;;;21.00;97.20;;;;;;5022110;28;45285;-50
2023/09/05 01:00:34;;;;;;;1.63;1.20;;;21.10;97.20;;;;;;5016691;28;45144;-50
2023/09/05 01:03:00;;;;;;;2.05;1.50;;;21.10;96.20;;;;;;5022015;28;45324;-50
2023/09/05 01:05:34;;;;;;;3.35;1.45;;;21.00;94.40;;;;;;5020314;28;45392;-50
2023/09/05 01:08:08;;;;;;;3.97;1.30;;;21.10;94.90;;;;;;5022254;28;46994;-51
2023/09/05 01:10:43;;;;;;;1.20;1.10;;;21.00;96.10;;;;;;5019008;28;45177;-51
2023/09/05 01:13:09;;;;;;;3.42;1.02;;;21.10;96.90;;;;;;5021166;28;45206;-51
2023/09/05 01:15:36;;;;;;;2.85;1.40;;;21.10;95.40;;;;;;5022383;28;45364;-51
2023/09/05 01:18:03;;;;;;;1.70;1.10;;;21.10;95.20;;;;;;5020028;28;47257;-50
2023/09/05 01:20:41;;;;;;;1.98;1.20;;;21.10;94.70;;;;;;5015481;28;45360;-51
2023/09/05 01:23:13;;;;;;;5.15;1.38;;;21.00;95.10;;;;;;5021926;28;45326;-50
2023/09/05 01:25:42;;;;;;;3.45;1.20;;;21.10;95.10;;;;;;5020474;28;44776;-50
2023/09/05 01:28:11;;;;;;;2.95;1.65;;;21.10;95.80;;;;;;5021257;28;45230;-50
2023/09/05 01:30:39;;;;;;;2.83;1.35;;;21.00;95.10;;;;;;5023433;28;45185;-51
2023/09/05 01:33:06;;;;;;;2.53;1.23;;;21.00;95.80;;;;;;5017997;28;44722;-50
2023/09/05 01:35:33;;;;;;;2.38;1.27;;;21.00;95.70;;;;;;5017451;28;45270;-50
2023/09/05 01:38:00;;;;;;;2.40;1.17;;;21.00;95.70;;;;;;5020254;28;45211;-50
2023/09/05 01:40:27;;;;;;;2.42;1.35;;;21.00;96.00;;;;;;5021623;28;45163;-50
2023/09/05 01:42:55;;;;;;;2.47;1.30;;;21.00;96.20;;;;;;5023543;28;45142;-51
2023/09/05 01:45:22;;;;;;;1.67;1.33;;;21.00;95.10;;;;;;5006173;28;45263;-50
2023/09/05 01:47:49;;;;;;;2.00;1.40;;;21.00;95.60;;;;;;5020209;28;46313;-50
2023/09/05 01:50:15;;;;;;;4.15;1.80;;;20.90;93.30;;;;;;5023058;28;45138;-50
2023/09/05 01:52:42;;;;;;;3.53;1.40;;;20.80;94.60;;;;;;5022830;28;45229;-50
2023/09/05 01:55:09;;;;;;;1.88;1.30;;;20.80;94.50;;;;;;5019472;28;45160;-50
2023/09/05 01:57:36;;;;;;;2.15;1.30;;;20.70;94.90;;;;;;5019994;28;45284;-50
2023/09/05 02:00:05;;;;;;;4.90;1.58;;;20.70;94.30;;;;;;5022955;28;45193;-50
2023/09/05 02:02:32;;;;;;;2.88;1.30;;;20.80;93.70;;;;;;5020584;28;44717;-51
2023/09/05 02:04:58;;;;;;;2.33;1.35;;;20.80;96.10;;;;;;5021065;28;45042;-50
2023/09/05 02:07:25;;;;;;;2.00;1.00;;;20.80;97.40;;;;;;5021291;28;46421;-51
2023/09/05 02:09:52;;;;;;;2.00;1.40;;;20.90;95.70;;;;;;5023164;28;45624;-50
2023/09/05 02:12:19;;;;;;;2.88;1.42;;;21.00;96.30;;;;;;5021522;28;45048;-50
2023/09/05 02:14:47;;;;;;;2.03;1.30;;;20.90;95.60;;;;;;5019597;28;45035;-50
2023/09/05 02:17:15;;;;;;;4.45;1.48;;;20.90;96.30;;;;;;5017700;28;45243;-51
2023/09/05 02:19:42;;;;;;;4.55;1.50;;;21.00;95.30;;;;;;5020262;28;45123;-51
2023/09/05 02:22:09;;;;;;;1.48;1.15;;;20.90;94.40;;;;;;5022391;28;45074;-50
2023/09/05 02:24:36;;;;;;;2.22;1.30;;;20.80;96.40;;;;;;5017406;28;44657;-50
2023/09/05 02:27:03;;;;;;;1.38;1.00;;;20.90;96.80;;;;;;5017842;28;45360;-51
2023/09/05 02:29:30;;;;;;;2.85;1.30;;;21.00;95.00;;;;;;5021965;28;45165;-50
2023/09/05 02:31:56;;;;;;;1.65;1.10;;;20.90;94.40;;;;;;5022583;28;45170;-50
2023/09/05 02:34:24;;;;;;;1.85;1.20;;;20.90;95.90;;;;;;5013049;28;45072;-51
2023/09/05 02:36:54;;;;;;;3.03;1.23;;;21.00;96.50;;;;;;5022980;28;46268;-50
2023/09/05 02:39:21;;;;;;;3.25;1.20;;;21.00;94.80;;;;;;5021427;28;45104;-51
2023/09/05 02:41:48;;;;;;;1.85;1.38;;;21.00;95.00;;;;;;5023382;28;45228;-50
2023/09/05 02:44:14;;;;;;;1.60;1.10;;;20.90;94.10;;;;;;5022360;28;45263;-50
2023/09/05 02:46:41;;;;;;;1.90;1.33;;;20.90;95.70;;;;;;5016901;28;46035;-50
2023/09/05 02:49:08;;;;;;;1.30;1.05;;;20.90;93.80;;;;;;5023503;28;44714;-50
2023/09/05 02:51:36;;;;;;;1.67;1.23;;;20.90;95.20;;;;;;5023583;28;45250;-50
2023/09/05 02:54:03;;;;;;;1.50;1.13;;;20.80;93.40;;;;;;5018309;28;45320;-50
2023/09/05 02:56:30;;;;;;;2.72;1.25;;;20.80;94.80;;;;;;5022999;28;47403;-50
2023/09/05 02:58:57;;;;;;;3.90;1.27;;;20.80;94.00;;;;;;5020684;28;45145;-50
2023/09/05 03:01:24;;;;;;;3.53;1.33;;;20.80;94.40;;;;;;5019032;28;45145;-51
2023/09/05 03:03:50;;;;;;;2.88;1.20;;;20.80;94.40;;;;;;5013943;28;45295;-50
2023/09/05 03:06:18;;;;;;;1.95;1.23;;;20.70;94.30;;;;;;5015998;28;45268;-51
2023/09/05 03:08:46;;;;;;;4.15;1.20;;;20.70;94.70;;;;;;5021837;28;45154;-50
2023/09/05 03:11:15;;;;;;;1.88;1.27;;;20.70;94.30;;;;;;5020707;28;45298;-50
2023/09/05 03:13:41;;;;;;;1.63;1.17;;;20.80;94.40;;;;;;5021481;28;45135;-50
2023/09/05 03:16:08;;;;;;;2.35;1.40;;;20.80;94.70;;;;;;5017933;28;45126;-51
2023/09/05 03:18:35;;;;;;;2.80;1.60;;;20.90;92.50;;;;;;5020412;28;44904;-51
2023/09/05 03:21:02;;;;;;;1.92;1.27;;;20.90;96.70;;;;;;5013470;28;45130;-50
2023/09/05 03:23:28;;;;;;;2.30;1.40;;;20.90;93.40;;;;;;5020978;28;45083;-51
2023/09/05 03:25:57;;;;;;;1.75;1.00;;;20.90;94.10;;;;;;5019946;28;45235;-50
2023/09/05 03:28:24;;;;;;;3.13;1.27;;;20.90;93.80;;;;;;5024558;28;45216;-51
2023/09/05 03:30:51;;;;;;;1.90;1.30;;;20.80;93.20;;;;;;5021799;28;45227;-51
2023/09/05 03:33:18;;;;;;;2.95;1.20;;;20.70;92.20;;;;;;5022098;28;45125;-50
2023/09/05 03:35:45;;;;;;;4.40;1.10;;;20.70;93.50;;;;;;5023848;28;46270;-50
2023/09/05 03:38:12;;;;;;;4.15;1.27;;;20.80;94.30;;;;;;5024913;28;45061;-50
2023/09/05 03:40:39;;;;;;;2.65;1.38;;;20.80;92.50;;;;;;5023235;28;45215;-50
2023/09/05 03:43:07;;;;;;;1.55;1.17;;;20.70;92.70;;;;;;5022397;28;45053;-50
2023/09/05 03:45:34;;;;;;;3.85;1.30;;;20.80;94.20;;;;;;5020632;28;46435;-50
2023/09/05 03:48:01;;;;;;;2.42;1.20;;;20.70;92.90;;;;;;5017505;28;45261;-50
2023/09/05 03:50:28;;;;;;;3.80;0.90;;;20.70;93.70;;;;;;5015488;28;45215;-50
2023/09/05 03:52:55;;;;;;;1.73;1.25;;;20.70;92.50;;;;;;5026031;28;45125;-50
2023/09/05 03:55:21;;;;;;;1.50;1.00;;;20.70;94.30;;;;;;5022259;28;45183;-51
2023/09/05 03:57:48;;;;;;;3.20;1.10;;;20.80;93.40;;;;;;5017415;28;45416;-50
2023/09/05 04:00:17;;;;;;;1.23;1.00;;;20.80;94.40;;;;;;5022683;28;45196;-50
2023/09/05 04:02:44;;;;;;;2.88;1.00;;;20.80;93.70;;;;;;5021422;28;45115;-50
2023/09/05 04:05:10;;;;;;;2.55;1.30;;;20.80;93.00;;;;;;5024535;28;47116;-50
2023/09/05 04:07:37;;;;;;;1.45;1.20;;;20.80;92.70;;;;;;5024478;28;45310;-50
2023/09/05 04:10:05;;;;;;;2.25;1.00;;;20.70;94.20;;;;;;5024743;28;45183;-51
2023/09/05 04:12:32;;;;;;;2.92;1.67;;;20.70;93.50;;;;;;5011805;28;45088;-50
2023/09/05 04:14:59;;;;;;;2.55;1.45;;;20.70;91.80;;;;;;5022880;28;46037;-50
2023/09/05 04:17:27;;;;;;;2.00;1.20;;;20.70;93.70;;;;;;5019894;28;45076;-51
2023/09/05 04:19:54;;;;;;;1.17;1.08;;;20.80;92.70;;;;;;5021647;28;45453;-50
2023/09/05 04:22:21;;;;;;;1.00;0.90;;;20.80;95.60;;;;;;5022536;28;45388;-50
2023/09/05 04:24:52;;;;;;;4.65;1.30;;;20.90;94.70;;;;;;5021279;28;45450;-51
2023/09/05 04:27:21;;;;;;;1.85;1.05;;;20.90;92.70;;;;;;5024141;28;45080;-50
2023/09/05 04:29:50;;;;;;;2.33;1.08;;;20.90;94.10;;;;;;5010436;28;45141;-50
2023/09/05 04:32:17;;;;;;;2.65;1.30;;;20.90;94.40;;;;;;5016761;28;44651;-51
2023/09/05 04:34:46;;;;;;;1.63;1.30;;;21.00;95.30;;;;;;5020834;28;46182;-51
2023/09/05 04:37:12;;;;;;;2.85;1.30;;;21.00;93.60;;;;;;5024231;28;44678;-51
2023/09/05 04:39:39;;;;;;;2.10;1.13;;;20.90;92.80;;;;;;5021934;28;45210;-52
2023/09/05 04:42:06;;;;;;;2.42;1.30;;;20.80;94.40;;;;;;5024346;28;44797;-52
2023/09/05 04:44:33;;;;;;;1.60;1.30;;;20.90;94.60;;;;;;5017578;28;46996;-52
2023/09/05 04:47:24;;;;;;;1.50;1.10;;;20.90;95.10;;;;;;5021744;28;45303;-52
2023/09/05 04:49:53;;;;;;;3.90;1.25;;;21.00;95.20;;;;;;5018297;28;45309;-51
2023/09/05 04:52:22;;;;;;;1.92;1.20;;;21.00;94.70;;;;;;5016857;28;45150;-51
2023/09/05 04:54:49;;;;;;;1.92;1.27;;;21.00;94.40;;;;;;5024561;28;45186;-51
2023/09/05 04:57:17;;;;;;;1.60;1.00;;;21.10;94.80;;;;;;5022786;28;45092;-51
2023/09/05 04:59:44;;;;;;;2.08;1.35;;;21.00;93.60;;;;;;5022453;28;45093;-51
2023/09/05 05:02:12;;;;;;;2.38;1.35;;;21.00;94.40;;;;;;5019993;28;45349;-51
2023/09/05 05:04:38;;;;;;;1.13;1.00;;;20.90;92.30;;;;;;5018098;28;45443;-52
2023/09/05 05:07:07;;;;;;;3.53;1.30;;;21.00;95.60;;;;;;5019470;28;44754;-52
2023/09/05 05:09:33;;;;;;;3.00;1.33;;;21.00;94.40;;;;;;5023534;28;45194;-52
2023/09/05 05:12:00;;;;;;;1.63;1.30;;;21.10;96.70;;;;;;5023081;28;45287;-52
2023/09/05 05:14:29;;;;;;;2.50;1.40;;;21.10;93.90;;;;;;5024342;28;45236;-52
2023/09/05 05:16:56;;;;;;;1.75;1.23;;;21.20;93.40;;;;;;5017314;28;45013;-52
2023/09/05 05:19:22;;;;;;;3.47;1.67;;;21.20;92.70;;;;;;5023324;28;45147;-52
2023/09/05 05:21:49;;;;;;;2.53;1.30;;;21.20;92.70;;;;;;5016321;28;45147;-52
2023/09/05 05:24:18;;;;;;;2.05;1.10;;;21.20;92.20;;;;;;5021117;28;45272;-52
2023/09/05 05:26:45;;;;;;;2.95;1.30;;;21.20;92.80;;;;;;5017839;28;45048;-51
2023/09/05 05:29:12;;;;;;;2.00;1.10;;;21.20;94.40;;;;;;5022672;28;45460;-52
2023/09/05 05:31:40;;;;;;;6.13;1.40;;;21.20;93.30;;;;;;5019036;28;45224;-52
2023/09/05 05:34:07;;;;;;;4.22;1.40;;;21.00;92.30;;;;;;5022083;28;45278;-52
2023/09/05 05:36:34;;;;;;;2.35;1.42;;;21.00;92.30;;;;;;5019560;28;45232;-52
2023/09/05 05:39:02;;;;;;;2.15;1.42;;;20.90;92.80;;;;;;5024149;28;45095;-52
2023/09/05 05:41:30;;;;;;;3.35;1.42;;;21.10;94.60;;;;;;5016042;28;45114;-52
2023/09/05 05:43:57;;;;;;;2.75;1.33;;;21.20;94.00;;;;;;5022857;28;45458;-52
2023/09/05 05:46:24;;;;;;;3.25;1.55;;;21.20;93.70;;;;;;5019766;28;45116;-52
2023/09/05 05:48:52;;;;;;;2.92;1.17;;;21.20;93.20;;;;;;5023890;28;44656;-52
2023/09/05 05:51:19;;;;;;;5.82;1.20;;;21.30;94.50;;;;;;5020600;28;45126;-52
2023/09/05 05:53:46;;;;;;;1.58;1.08;;;21.70;93.90;;;;;;5019430;28;48133;-52
2023/09/05 05:56:13;;;;;;;2.45;1.27;;;21.90;93.40;;;;;;5019331;28;45618;-52
2023/09/05 05:58:41;;;;;;;3.53;1.50;;;22.00;92.90;;;;;;5022056;28;45327;-51
2023/09/05 06:01:10;;;;;;;2.88;1.67;;;21.90;86.50;;;;;;5005328;28;45159;-52
2023/09/05 06:03:36;;;;;;;3.33;1.48;;;21.30;90.20;;;;;;5007802;28;46190;-51
2023/09/05 06:06:04;;;;;;;3.50;1.60;;;20.80;91.90;;;;;;5008907;28;45300;-52
2023/09/05 06:08:31;;;;;;;2.55;1.67;;;20.20;93.60;;;;;;5014239;28;45239;-52
2023/09/05 06:10:58;;;;;;;4.22;1.63;;;20.20;91.80;;;;;;5013222;28;45140;-52
2023/09/05 06:13:25;;;;;;;2.65;1.40;;;19.90;92.30;;;;;;5015897;28;45219;-52
2023/09/05 06:15:53;;;;;;;4.40;1.70;;;19.90;92.60;;;;;;5013201;28;45168;-52
2023/09/05 06:18:20;;;;;;;2.15;1.60;;;19.70;92.80;;;;;;5021513;28;45076;-52
2023/09/05 06:20:47;;;;;;;1.65;1.48;;;19.70;93.40;;;;;;5009721;28;45150;-52
2023/09/05 06:23:13;;;;;;;3.78;1.40;;;20.00;93.50;;;;;;5021553;28;46377;-52
2023/09/05 06:25:40;;;;;;;2.83;1.67;;;20.00;92.20;;;;;;5021456;28;45201;-52
2023/09/05 06:28:07;;;;;;;3.67;1.70;;;19.90;92.80;;;;;;5023419;28;45151;-51
2023/09/05 06:30:34;;;;;;;2.95;1.60;;;20.20;91.90;;;;;;5021326;28;44632;-51
2023/09/05 06:33:03;;;;;;;4.63;1.40;;;20.90;94.60;;;;;;5014896;28;46267;-51
2023/09/05 06:35:29;;;;;;;7.15;1.48;;;21.10;90.90;;;;;;5021888;28;45211;-52
2023/09/05 06:37:56;;;;;;;3.60;1.30;;;21.30;93.10;;;;;;5023859;28;45262;-52
2023/09/05 06:40:24;;;;;;;2.15;1.17;;;21.50;91.10;;;;;;5022209;28;44855;-51
2023/09/05 06:42:51;;;;;;;6.70;1.73;;;21.70;92.00;;;;;;5023395;28;45198;-52
2023/09/05 06:45:19;;;;;;;1.40;1.10;;;21.60;92.40;;;;;;5018386;28;45111;-51
2023/09/05 06:47:46;;;;;;;1.90;1.23;;;21.80;92.00;;;;;;5017694;28;45205;-52
2023/09/05 06:50:14;;;;;;;1.95;1.33;;;21.90;91.80;;;;;;5023403;28;44667;-51
2023/09/05 06:52:41;;;;;;;2.25;1.40;;;22.00;90.90;;;;;;5021164;28;45204;-52
2023/09/05 06:55:08;;;;;;;2.08;1.13;;;22.00;90.50;;;;;;5017724;28;45043;-52
2023/09/05 06:57:35;;;;;;;1.90;1.20;;;22.00;91.80;;;;;;5020326;28;45168;-51
2023/09/05 07:00:03;;;;;;;2.35;1.20;;;22.00;91.60;;;;;;5023523;28;44848;-52
2023/09/05 07:02:31;;;;;;;3.13;1.83;;;22.00;90.90;;;;;;5022453;28;45160;-52
2023/09/05 07:04:58;;;;;;;7.72;1.75;;;21.90;91.30;;;;;;5027394;28;45286;-52
2023/09/05 07:07:26;;;;;;;2.13;1.08;;;21.90;90.30;;;;;;5029851;28;44631;-52
2023/09/05 07:09:53;;;;;;;1.92;1.10;;;22.00;90.10;;;;;;5028318;28;45236;-52
2023/09/05 07:12:20;;;;;;;3.08;1.45;;;21.80;92.10;;;;;;5027893;28;46547;-51
2023/09/05 07:14:47;;;;;;;1.20;1.08;;;22.00;91.30;;;;;;5029441;28;45118;-52
2023/09/05 07:17:14;;;;;;;2.30;1.48;;;22.10;91.80;;;;;;5027465;28;45143;-51
2023/09/05 07:19:40;;;;;;;3.20;1.73;;;22.00;92.10;;;;;;5028087;28;45124;-51
2023/09/05 07:22:07;;;;;;;1.88;1.17;;;22.00;91.20;;;;;;5029903;28;47435;-52
2023/09/05 07:24:36;;;;;;;1.73;1.35;;;22.10;91.60;;;;;;5029457;28;45175;-52
2023/09/05 07:27:04;;;;;;;2.72;1.13;;;22.10;91.10;;;;;;5027903;28;45184;-52
2023/09/05 07:29:31;;;;;;;1.58;1.05;;;22.20;91.70;;;;;;5028202;28;45158;-52
2023/09/05 07:31:58;;;;;;;1.90;1.17;;;22.10;91.60;;;;;;5027059;28;45431;-52
2023/09/05 07:34:26;;;;;;;4.28;1.42;;;22.20;91.90;;;;;;5029278;28;45127;-52
2023/09/05 07:36:54;;;;;;;2.35;1.40;;;22.20;91.20;;;;;;5019385;28;45144;-51
2023/09/05 07:39:21;;;;;;;2.55;1.20;;;22.30;91.40;;;;;;5029483;28;45162;-52
2023/09/05 07:41:49;;;;;;;3.90;1.52;;;22.30;91.20;;;;;;5026065;28;46702;-52
2023/09/05 07:44:16;;;;;;;3.17;1.27;;;22.10;90.70;;;;;;5028741;28;45040;-51
2023/09/05 07:46:43;;;;;;;4.93;1.40;;;22.20;91.80;;;;;;5020629;28;45111;-51
2023/09/05 07:49:10;;;;;;;8.15;1.67;;;22.30;91.10;;;;;;5027040;28;44687;-52
2023/09/05 07:51:37;;;;;;;4.25;1.20;;;22.10;90.10;;;;;;5029356;28;47331;-52
2023/09/05 07:54:06;;;;;;;1.67;1.20;;;22.20;91.80;;;;;;5028852;28;45215;-52
2023/09/05 07:56:34;;;;;;;1.55;1.13;;;22.30;91.60;;;;;;5028044;28;45128;-52
2023/09/05 07:59:02;;;;;;;2.00;1.40;;;22.30;91.20;;;;;;5028626;28;45301;-52
2023/09/05 08:01:29;;;;;;;2.17;1.42;;;22.40;91.10;;;;;;5019389;28;47266;-52
2023/09/05 08:03:56;;;;;;;2.25;1.30;;;22.40;91.20;;;;;;5022248;28;45254;-51
2023/09/05 08:06:22;;;;;;;3.35;1.40;;;22.40;90.60;;;;;;5028933;28;45218;-52
2023/09/05 08:08:49;;;;;;;1.45;1.25;;;22.40;89.50;;;;;;5023440;28;45051;-52
2023/09/05 08:11:16;;;;;;;2.53;1.50;;;22.40;90.90;;;;;;5025877;28;45199;-51
2023/09/05 08:13:43;;;;;;;2.45;1.40;;;22.40;91.10;;;;;;5025359;28;45080;-52
2023/09/05 08:16:11;;;;;;;1.55;1.20;;;22.40;90.70;;;;;;5021834;28;45049;-52
2023/09/05 08:18:38;;;;;;;2.15;1.50;;;22.40;90.80;;;;;;5025855;28;45131;-51
2023/09/05 08:21:05;;;;;;;2.40;1.50;;;22.40;90.80;;;;;;5025642;28;45193;-52
2023/09/05 08:23:32;;;;;;;2.30;1.48;;;22.50;90.50;;;;;;5025906;28;45204;-51
2023/09/05 08:25:59;;;;;;;2.10;1.35;;;22.40;90.40;;;;;;5013457;28;45314;-52
2023/09/05 08:28:27;;;;;;;5.32;1.70;;;22.40;90.50;;;;;;5015811;28;45185;-52
2023/09/05 08:30:59;;;;;;;2.67;1.60;;;22.50;88.70;;;;;;5025508;28;45152;-51
2023/09/05 08:33:29;;;;;;;4.53;1.35;;;22.50;90.00;;;;;;5019572;28;45107;-52
2023/09/05 08:35:55;;;;;;;3.30;1.60;;;22.60;88.90;;;;;;5009056;28;44740;-52
2023/09/05 08:38:22;;;;;;;2.13;1.42;;;22.50;89.90;;;;;;5007485;28;45091;-52
2023/09/05 08:40:49;;;;;;;2.55;1.30;;;22.60;89.30;;;;;;5019764;28;45271;-52
2023/09/05 08:43:17;;;;;;;3.63;1.58;;;22.60;89.50;;;;;;5021800;28;45026;-52
2023/09/05 08:45:45;;;;;;;2.17;1.40;;;22.60;90.00;;;;;;5022912;28;45185;-52
2023/09/05 08:48:12;;;;;;;4.18;1.30;;;22.50;89.60;;;;;;5021049;28;45071;-51
2023/09/05 08:50:42;;;;;;;2.95;1.45;;;22.60;88.90;;;;;;5020518;28;45178;-52
2023/09/05 08:53:11;;;;;;;2.00;1.50;;;22.60;89.30;;;;;;5020155;28;45048;-52
2023/09/05 08:55:40;;;;;;;2.38;1.63;;;22.60;88.90;;;;;;5024778;28;45246;-52
2023/09/05 08:58:10;;;;;;;3.03;1.50;;;22.50;88.70;;;;;;5022118;28;44627;-52
2023/09/05 09:00:37;;;;;;;2.50;1.50;;;22.60;88.60;;;;;;5008979;28;45235;-51
2023/09/05 09:03:06;;;;;;;1.63;1.38;;;22.60;89.20;;;;;;5022591;28;45057;-52
2023/09/05 09:05:33;;;;;;;5.47;1.42;;;22.60;89.80;;;;;;5008524;28;45067;-52
2023/09/05 09:08:01;;;;;;;2.80;1.17;;;22.50;89.70;;;;;;5015786;28;45135;-52
2023/09/05 09:10:28;;;;;;;2.50;1.45;;;22.50;89.40;;;;;;5016098;28;45377;-52
2023/09/05 09:12:56;;;;;;;2.90;1.52;;;22.50;86.10;;;;;;5019423;28;44717;-52
2023/09/05 09:15:25;;;;;;;5.15;1.75;;;22.30;87.50;;;;;;5016889;28;45140;-52
2023/09/05 09:17:53;;;;;;;3.53;1.50;;;22.30;86.70;;;;;;5019553;28;45132;-51
2023/09/05 09:20:23;;;;;;;4.15;1.55;;;22.30;87.50;;;;;;5017503;28;45270;-52
2023/09/05 09:22:50;;;;;;;4.88;1.52;;;22.30;86.00;;;;;;5017106;28;45248;-52
2023/09/05 09:25:20;;;;;;;4.75;1.50;;;22.30;86.20;;;;;;5021872;28;45219;-52
2023/09/05 09:27:51;;;;;;;2.40;1.48;;;22.20;89.70;;;;;;5022804;28;45104;-52
2023/09/05 09:30:22;;;;;;;1.42;1.15;;;22.20;90.20;;;;;;5016054;28;46033;-52
2023/09/05 09:32:51;;;;;;;4.47;1.65;;;22.20;90.70;;;;;;5016968;28;45129;-52
2023/09/05 09:35:19;;;;;;;4.03;1.65;;;22.20;90.10;;;;;;5023759;28;45112;-52
2023/09/05 09:37:46;;;;;;;6.30;1.70;;;22.20;90.70;;;;;;5016439;28;45108;-52
2023/09/05 09:40:16;;;;;;;2.55;1.60;;;22.20;89.90;;;;;;5023307;28;45263;-52
2023/09/05 09:42:47;;;;;;;4.70;1.30;;;22.20;89.40;;;;;;5023104;28;45307;-52
2023/09/05 09:45:14;;;;;;;2.95;1.60;;;22.20;90.00;;;;;;5022535;28;45051;-51
2023/09/05 09:47:47;;;;;;;2.65;1.35;;;22.20;90.00;;;;;;5018846;28;45038;-52
2023/09/05 09:50:14;;;;;;;5.80;1.60;;;22.30;90.00;;;;;;5021887;28;46215;-52
2023/09/05 09:52:44;;;;;;;3.65;1.63;;;22.30;87.90;;;;;;5024416;28;45142;-52
2023/09/05 09:55:13;;;;;;;2.92;1.40;;;22.30;88.20;;;;;;5023992;28;45135;-52
2023/09/05 09:57:47;;;;;;;2.08;1.13;;;22.30;90.10;;;;;;5021676;28;45172;-52
2023/09/05 10:00:18;;;;;;;1.30;0.98;;;22.20;90.30;;;;;;5013758;28;44982;-52
2023/09/05 10:02:47;;;;;;;3.28;1.55;;;22.20;91.20;;;;;;5015526;28;45268;-52
2023/09/05 10:05:15;;;;;;;1.63;1.30;;;22.10;90.90;;;;;;5015778;28;45095;-52
2023/09/05 10:07:43;;;;;;;2.85;1.30;;;22.10;91.50;;;;;;5022573;28;45191;-52
2023/09/05 10:10:15;;;;;;;1.75;1.10;;;22.10;92.20;;;;;;5022450;28;48126;-52
2023/09/05 10:12:45;;;;;;;1.42;0.82;;;22.10;91.20;;;;;;5023113;28;45226;-52
2023/09/05 10:15:13;;;;;;;1.55;1.25;;;22.20;91.50;;;;;;5020080;28;45236;-52
2023/09/05 10:17:41;;;;;;;3.08;1.20;;;22.20;91.60;;;;;;5017000;28;45302;-52
2023/09/05 10:20:14;;;;;;;1.25;1.05;;;22.20;91.60;;;;;;5023287;28;46377;-52
2023/09/05 10:22:43;;;;;;;3.08;1.42;;;22.10;92.20;;;;;;5014955;28;45506;-52
2023/09/05 10:25:13;;;;;;;3.22;1.30;;;22.10;91.20;;;;;;5023569;28;45095;-52
2023/09/05 10:27:42;;;;;;;3.13;1.20;;;22.20;91.60;;;;;;5017068;28;45243;-52
2023/09/05 10:30:11;;;;;;;1.85;1.23;;;22.20;92.10;;;;;;5004681;28;45307;-52
2023/09/05 10:32:41;;;;;;;2.95;1.25;;;22.20;92.10;;;;;;5004526;28;45257;-52
2023/09/05 10:35:08;;;;;;;1.63;1.20;;;22.20;91.30;;;;;;5003512;28;44621;-52
2023/09/05 10:37:50;;;;;;;1.30;1.17;;;22.20;91.70;;;;;;5015663;28;45271;-52
2023/09/05 10:40:17;;;;;;;2.20;1.33;;;22.20;92.00;;;;;;5018242;28;45182;-52
2023/09/05 10:42:49;;;;;;;1.17;1.08;;;22.20;92.00;;;;;;5022084;28;45126;-52
2023/09/05 10:45:36;;;;;;;8.30;1.50;;;22.10;91.70;;;;;;5020816;28;45077;-52
2023/09/05 10:48:07;;;;;;;1.45;1.20;;;22.20;91.40;;;;;;5022780;28;45053;-52
2023/09/05 10:51:07;;;;;;;1.58;1.00;;;22.20;92.00;;;;;;5016369;28;45181;-52
2023/09/05 10:53:35;;;;;;;1.90;1.05;;;22.20;92.10;;;;;;5015859;28;45158;-52
2023/09/05 10:56:02;;;;;;;3.92;1.17;;;22.10;92.50;;;;;;5021105;28;45195;-51
2023/09/05 10:58:47;;;;;;;1.40;0.90;;;22.10;92.80;;;;;;5014396;28;45214;-52
2023/09/05 11:01:56;;;;;;;1.70;1.10;;;22.10;92.80;;;;;;5019186;28;46059;-52
2023/09/05 11:04:27;;;;;;;1.63;1.02;;;22.20;92.60;;;;;;4961628;28;45310;-52
2023/09/05 11:07:05;;;;;;;2.17;1.20;;;22.20;92.70;;;;;;4960064;28;45106;-52
2023/09/05 11:09:43;;;;;;;1.00;0.90;;;22.20;92.30;;;;;;4994404;28;45330;-52
2023/09/05 11:12:10;;;;;;;1.83;1.17;;;22.20;92.30;;;;;;5012012;28;47171;-52
2023/09/05 11:14:37;;;;;;;1.63;1.10;;;22.30;91.60;;;;;;5005820;28;45441;-52
2023/09/05 11:17:08;;;;;;;1.13;0.90;;;22.30;91.60;;;;;;5016513;28;45223;-52
2023/09/05 11:19:39;;;;;;;2.42;1.20;;;22.30;92.20;;;;;;5019429;28;45323;-52
2023/09/05 11:22:11;;;;;;;0.88;0.80;;;22.20;92.40;;;;;;5020463;28;47046;-52
2023/09/05 11:24:39;;;;;;;1.35;1.02;;;22.20;92.60;;;;;;5010593;28;45108;-52
2023/09/05 11:27:07;;;;;;;1.90;1.00;;;22.20;92.70;;;;;;5014497;28;45198;-52
2023/09/05 11:29:34;;;;;;;1.30;0.98;;;22.30;92.40;;;;;;5012164;28;45737;-52
2023/09/05 11:32:01;;;;;;;1.00;0.90;;;22.20;92.60;;;;;;5007600;28;47021;-52
2023/09/05 11:34:30;;;;;;;3.58;1.52;;;22.20;92.80;;;;;;5015334;28;45167;-52
2023/09/05 11:36:57;;;;;;;1.48;1.00;;;22.30;92.30;;;;;;5013723;28;45211;-52
2023/09/05 11:39:28;;;;;;;2.28;1.02;;;22.30;92.50;;;;;;5008658;28;45350;-52
2023/09/05 11:41:58;;;;;;;4.00;1.05;;;22.30;92.60;;;;;;5007584;28;47659;-52
2023/09/05 11:44:38;;;;;;;2.08;1.08;;;22.30;92.50;;;;;;5018186;28;45123;-52
2023/09/05 11:47:05;;;;;;;1.60;1.13;;;22.30;92.80;;;;;;5011896;28;45112;-52
2023/09/05 11:49:35;;;;;;;2.95;1.10;;;22.20;92.70;;;;;;5021819;28;44687;-52
2023/09/05 11:52:03;;;;;;;2.22;1.20;;;22.30;92.80;;;;;;5023501;28;45340;-52
2023/09/05 11:54:30;;;;;;;5.20;1.40;;;22.30;92.70;;;;;;5022355;28;45372;-52
2023/09/05 11:56:58;;;;;;;1.88;1.10;;;22.30;92.60;;;;;;5024496;28;45135;-52
2023/09/05 11:59:25;;;;;;;1.20;1.00;;;22.30;92.70;;;;;;5022683;28;45232;-52
2023/09/05 12:01:52;;;;;;;1.20;1.00;;;22.30;92.60;;;;;;5017228;28;45181;-51
2023/09/05 12:04:20;;;;;;;8.50;1.23;;;22.40;92.50;;;;;;5021826;28;44605;-52
2023/09/05 12:06:52;;;;;;;1.20;1.00;;;22.40;92.50;;;;;;5026107;28;45140;-52
2023/09/05 12:09:20;;;;;;;5.10;1.08;;;22.40;92.70;;;;;;5018267;28;45096;-52
2023/09/05 12:11:48;;;;;;;1.85;1.00;;;22.30;92.80;;;;;;5010855;28;45249;-52
2023/09/05 12:14:16;;;;;;;3.75;1.05;;;22.40;92.80;;;;;;5020000;28;45122;-52
2023/09/05 12:16:47;;;;;;;1.55;1.10;;;22.40;92.80;;;;;;5016718;28;45177;-52
2023/09/05 12:19:14;;;;;;;1.55;1.08;;;22.40;92.90;;;;;;5009393;28;44822;-52
2023/09/05 12:21:42;;;;;;;1.60;1.00;;;22.30;92.90;;;;;;5009620;28;45240;-52
2023/09/05 12:24:24;;;;;;;1.98;0.90;;;22.30;93.00;;;;;;5007687;28;45138;-52
2023/09/05 12:26:52;;;;;;;2.15;1.30;;;22.30;93.00;;;;;;5011638;28;45170;-52
2023/09/05 12:29:21;;;;;;;3.53;0.90;;;22.30;93.10;;;;;;5014170;28;44728;-52
2023/09/05 12:31:50;;;;;;;2.28;1.02;;;22.30;93.30;;;;;;5006675;28;46394;-52
2023/09/05 12:34:18;;;;;;;2.30;1.00;;;22.40;93.00;;;;;;5006530;28;45296;-52
2023/09/05 12:36:45;;;;;;;1.55;0.90;;;22.40;92.70;;;;;;5009354;28;45227;-52
2023/09/05 12:39:11;;;;;;;1.70;1.00;;;22.40;92.80;;;;;;5014600;28;44877;-51
2023/09/05 12:41:40;;;;;;;1.63;0.80;;;22.30;93.00;;;;;;5018403;28;45076;-52
2023/09/05 12:44:06;;;;;;;1.45;0.98;;;22.40;93.00;;;;;;5014821;28;45333;-52
2023/09/05 12:46:34;;;;;;;2.25;1.00;;;22.40;93.00;;;;;;5019176;28;45210;-52
2023/09/05 12:49:01;;;;;;;1.92;0.90;;;22.40;92.70;;;;;;5018359;28;45157;-52
2023/09/05 12:51:30;;;;;;;1.40;0.90;;;22.40;92.80;;;;;;5016212;28;46913;-53
2023/09/05 12:53:57;;;;;;;0.80;0.80;;;22.40;93.00;;;;;;5013414;28;46194;-53